Circle R (354) Station Data

Red Flag Warning: No
Fire Weather Zone: 250
SDGE Region: North East
Lat/Lon: 33.286/-117.146

Observations

Time Wind Speed/Gust Temp(F) RH Fuel Moist Fuel Temp(F) Dewpt(F) Tmax(F) Tmin(F) Accum Precip 10-min Precip SL Press(mb)
2/27 11:40pm 237 5 G 11 51° 100% - - 51° 56.4° 45.7° - - -
2/27 11:20pm 227 5 G 9 51° 100% - - 51° 56.4° 45.7° - - -
2/27 11:10pm 228 2 G 5 52° 100% - - 52° 56.4° 45.7° - - -
2/27 11:00pm 182 1 G 3 52° 100% - - 52° 56.4° 45.7° - - -
2/27 10:50pm 192 2 G 3 52° 100% - - 52° 56.4° 45.7° - - -
2/27 10:40pm 219 3 G 5 52° 100% - - 52° 56.4° 45.7° - - -
2/27 10:30pm 198 2 G 4 52° 100% - - 52° 56.4° 45.7° - - -
2/27 10:20pm 192 3 G 5 52° 100% - - 52° 56.4° 45.7° - - -
2/27 10:10pm 203 2 G 3 52° 100% - - 52° 56.4° 45.7° - - -
2/27 10:00pm 253 1 G 3 52° 100% - - 52° 56.4° 45.7° - - -
2/27 9:50pm 200 1 G 3 52° 100% - - 52° 56.4° 45.7° - - -
2/27 9:40pm 215 1 G 3 52° 100% - - 52° 56.4° 45.7° - - -
2/27 9:30pm 233 2 G 4 52° 100% - - 52° 56.4° 45.7° - - -
2/27 9:20pm 240 1 G 3 52° 100% - - 52° 56.4° 45.7° - - -
2/27 9:10pm 223 2 G 4 52° 100% - - 52° 56.4° 45.7° - - -
2/27 9:00pm 232 3 G 5 52° 100% - - 52° 56.4° 45.7° - - -
2/27 8:50pm 251 2 G 3 52° 100% - - 52° 56.4° 45.7° - - -
2/27 8:40pm 246 2 G 3 52° 100% - - 52° 56.4° 45.7° - - -
2/27 8:30pm 192 0 G 1 52° 100% - - 52° 56.4° 45.7° - - -
2/27 8:20pm 199 1 G 2 52° 100% - - 52° 56.4° 45.7° - - -
2/27 8:10pm 195 2 G 3 52° 100% - - 52° 56.4° 45.7° - - -
2/27 8:00pm 160 1 G 2 52° 100% - - 52° 56.4° 45.7° - - -
2/27 7:50pm 238 1 G 2 52° 100% - - 52° 56.4° 45.7° - - -
2/27 7:40pm 228 1 G 3 52° 100% - - 52° 56.4° 45.7° - - -
2/27 7:30pm 247 4 G 7 52° 100% - - 52° 56.4° 45.7° - - -
2/27 7:20pm 256 5 G 9 53° 100% - - 53° 56.4° 45.7° - - -
2/27 7:10pm 255 5 G 9 53° 100% - - 53° 56.4° 45.7° - - -
2/27 7:00pm 261 5 G 8 53° 100% - - 53° 56.4° 45.7° - - -
2/27 6:50pm 262 5 G 8 53° 100% - - 53° 56.4° 45.7° - - -
2/27 6:40pm 242 7 G 13 54° 100% - - 54° 56.4° 45.7° - - -
2/27 6:30pm 223 8 G 14 54° 100% - - 54° 56.4° 45.7° - - -
2/27 6:20pm 225 7 G 14 54° 100% - - 54° 56.4° 45.7° - - -
2/27 6:10pm 218 5 G 9 54° 100% - - 54° 56.4° 45.7° - - -
2/27 6:00pm 235 7 G 11 54° 100% - - 54° 56.4° 45.7° - - -
2/27 5:50pm 221 10 G 23 55° 100% - - 55° 56.4° 45.7° - - -
2/27 5:40pm 217 11 G 21 55° 100% - - 55° 56.4° 45.7° - - -
2/27 5:30pm 203 10 G 20 55° 100% - - 55° 56.4° 45.7° - - -
2/27 5:20pm 218 10 G 23 55° 100% - - 55° 56.4° 45.7° - - -
2/27 5:10pm 210 10 G 18 55° 100% - - 55° 56.4° 45.7° - - -
2/27 5:00pm 208 12 G 25 55° 100% - - 55° 56.4° 45.7° - - -
2/27 4:50pm 200 13 G 24 55° 100% - - 55° 56.4° 45.7° - - -
2/27 4:40pm 201 10 G 19 55° 100% - - 55° 56.4° 45.7° - - -
2/27 4:30pm 202 9 G 20 54° 100% - - 54° 56.4° 45.7° - - -
2/27 4:20pm 203 12 G 21 55° 100% - - 55° 56.4° 45.7° - - -
2/27 4:10pm 214 13 G 25 55° 100% - - 55° 56.4° 45.7° - - -
2/27 4:00pm 224 11 G 19 55° 100% - - 55° 56.4° 45.7° - - -
2/27 3:50pm 205 10 G 18 55° 100% - - 55° 56.4° 45.7° - - -
2/27 3:40pm 203 14 G 24 55° 100% - - 55° 56.4° 45.7° - - -
2/27 3:30pm 204 12 G 22 55° 100% - - 55° 56.4° 45.7° - - -
2/27 3:20pm 205 10 G 17 55° 100% - - 55° 56.4° 45.7° - - -
2/27 3:10pm 200 13 G 21 55° 100% - - 55° 56.4° 45.7° - - -
2/27 3:00pm 201 14 G 29 55° 100% - - 55° 56.4° 45.7° - - -
2/27 2:50pm 203 16 G 30 56° 100% - - 56° 56.4° 45.7° - - -
2/27 2:40pm 199 14 G 23 56° 100% - - 56° 56.4° 45.7° - - -
2/27 2:30pm 202 20 G 39 56° 100% - - 56° 56.4° 45.7° - - -
2/27 2:20pm 199 17 G 29 56° 100% - - 56° 56.4° 45.7° - - -
2/27 2:10pm 197 17 G 32 56° 100% - - 56° 56.4° 45.7° - - -
2/27 2:00pm 194 17 G 37 56° 100% - - 56° 56.4° 45.7° - - -
2/27 1:50pm 200 14 G 26 56° 100% - - 56° 56.4° 45.7° - - -
2/27 1:40pm 202 11 G 20 56° 100% - - 56° 56.4° 45.7° - - -
2/27 1:30pm 201 13 G 23 56° 100% - - 56° 56.4° 45.7° - - -
2/27 1:20pm 198 15 G 26 56° 100% - - 56° 56.4° 45.7° - - -
2/27 1:10pm 201 15 G 26 56° 100% - - 56° 56.4° 45.7° - - -
2/27 1:00pm 200 15 G 25 56° 100% - - 56° 56.4° 45.7° - - -
2/27 12:50pm 200 10 G 21 56° 100% - - 56° 56.4° 45.7° - - -
2/27 12:40pm 195 10 G 20 55° 100% - - 56° 56.4° 45.7° - - -
2/27 12:30pm 195 8 G 18 55° 100% - - 55° 56.4° 45.7° - - -
2/27 12:20pm 187 6 G 14 55° 100% - - 55° 56.4° 45.7° - - -
2/27 12:10pm 179 6 G 11 55° 100% - - 55° 56.4° 45.7° - - -
2/27 12:00pm 178 5 G 10 55° 100% - - 55° 56.4° 45.7° - - -
2/27 11:50am 190 6 G 11 55° 100% - - 55° 56.4° 45.7° - - -
2/27 11:40am 169 8 G 15 55° 100% - - 55° 56.4° 45.7° - - -
2/27 11:30am 182 6 G 11 55° 100% - - 55° 56.4° 45.7° - - -
2/27 11:20am 206 8 G 15 56° 100% - - 56° 56.4° 45.7° - - -
2/27 11:10am 207 10 G 20 56° 100% - - 56° 56.4° 45.7° - - -
2/27 11:00am 191 7 G 13 56° 100% - - 56° 56.4° 45.7° - - -
2/27 10:50am 192 7 G 13 56° 100% - - 56° 56.2° 45.7° - - -
2/27 10:40am 190 8 G 15 56° 100% - - 56° 55.9° 45.7° - - -
2/27 10:30am 188 7 G 10 56° 100% - - 56° 55.8° 45.7° - - -
2/27 10:20am 193 7 G 13 55° 100% - - 55° 55.4° 45.7° - - -
2/27 10:10am 196 9 G 15 54° 100% - - 54° 54.8° 45.7° - - -
2/27 10:00am 214 5 G 11 54° 100% - - 54° 54.4° 45.7° - - -
2/27 9:50am 224 3 G 10 54° 100% - - 54° 53.9° 45.7° - - -
2/27 9:40am 233 3 G 7 53° 100% - - 53° 53.6° 45.7° - - -
2/27 9:30am 255 2 G 7 53° 100% - - 53° 53.5° 45.7° - - -
2/27 9:20am 262 1 G 2 53° 100% - - 53° 53.3° 45.7° - - -
2/27 9:10am 293 2 G 3 52° 100% - - 52° 52.8° 45.7° - - -
2/27 9:00am 279 2 G 4 52° 100% - - 52° 52.2° 45.7° - - -
2/27 8:50am 114 1 G 2 51° 100% - - 51° 51.7° 45.7° - - -
2/27 8:40am 157 1 G 2 51° 100% - - 51° 51.7° 45.7° - - -
2/27 8:30am 347 1 G 3 50° 100% - - 50° 50.9° 45.7° - - -
2/27 8:20am 152 0 G 1 49° 100% - - 49° 49.7° 45.7° - - -
2/27 8:10am 111 1 G 3 49° 100% - - 49° 49.3° 45.7° - - -
2/27 8:00am 75 1 G 2 48° 100% - - 48° 48.8° 45.7° - - -
2/27 7:50am 178 1 G 2 48° 100% - - 48° 48.5° 45.7° - - -
2/27 7:40am 211 2 G 3 48° 100% - - 48° 48.4° 45.7° - - -
2/27 7:30am 169 1 G 2 48° 100% - - 48° 48.3° 45.7° - - -
2/27 7:20am 158 1 G 2 48° 100% - - 48° 48.3° 45.7° - - -
2/27 7:10am 166 1 G 2 48° 100% - - 48° 48.3° 45.7° - - -
2/27 7:00am 176 1 G 2 48° 100% - - 48° 48.3° 45.7° - - -
2/27 6:50am 348 0 G 2 48° 100% - - 48° 48.3° 45.7° - - -
2/27 6:40am 48 1 G 2 48° 100% - - 48° 48.3° 45.7° - - -
2/27 6:30am 30 0 G 2 48° 100% - - 48° 48.3° 45.7° - - -
2/27 6:20am 12 1 G 3 47° 100% - - 47° 48.3° 45.7° - - -
2/27 6:10am 188 0 G 2 47° 100% - - 47° 48.3° 45.7° - - -
2/27 6:00am 138 2 G 3 47° 100% - - 47° 48.3° 45.7° - - -
2/27 5:50am 127 2 G 3 47° 100% - - 47° 48.3° 45.7° - - -
2/27 5:40am 58 1 G 2 47° 100% - - 47° 48.3° 45.7° - - -
2/27 5:30am 212 1 G 2 47° 100% - - 47° 48.3° 45.7° - - -
2/27 5:20am 190 0 G 2 46° 100% - - 47° 48.3° 45.7° - - -
2/27 5:10am 178 1 G 2 46° 100% - - 46° 48.3° 45.7° - - -
2/27 5:00am 200 1 G 4 46° 100% - - 46° 48.3° 45.7° - - -
2/27 4:50am 189 3 G 6 46° 100% - - 47° 48.3° 45.7° - - -
2/27 4:40am 159 1 G 4 47° 100% - - 47° 48.3° 45.7° - - -
2/27 4:30am 7 3 G 6 47° 100% - - 47° 48.3° 45.7° - - -
2/27 4:20am 32 1 G 2 46° 100% - - 47° 48.3° 45.7° - - -
2/27 4:10am 271 1 G 3 46° 100% - - 46° 48.3° 45.7° - - -
2/27 4:00am 76 1 G 5 46° 100% - - 46° 48.3° 45.7° - - -
2/27 3:50am 37 2 G 5 46° 100% - - 46° 48.3° 45.7° - - -
2/27 3:40am 26 4 G 6 46° 100% - - 46° 48.3° 45.7° - - -
2/27 3:30am 21 5 G 9 46° 100% - - 46° 48.3° 45.7° - - -
2/27 3:20am 21 5 G 9 46° 100% - - 46° 48.3° 45.7° - - -
2/27 3:10am 21 3 G 6 46° 100% - - 46° 48.3° 45.7° - - -
2/27 3:00am 33 3 G 6 46° 100% - - 46° 48.3° 45.7° - - -
2/27 2:50am 27 3 G 5 46° 100% - - 46° 48.3° 45.7° - - -
2/27 2:40am 27 2 G 5 46° 100% - - 46° 48.3° 45.7° - - -
2/27 2:30am 23 4 G 6 46° 100% - - 46° 48.3° 45.7° - - -
2/27 2:20am 24 5 G 7 46° 100% - - 46° 48.3° 45.7° - - -
2/27 2:10am 27 5 G 7 46° 100% - - 47° 48.3° 45.7° - - -
2/27 2:00am 29 5 G 6 47° 97% - - 46° 48.3° 45.7° - - -
2/27 1:50am 20 4 G 6 47° 85% - - 43° 48.3° 45.7° - - -
2/27 1:40am 30 3 G 5 48° 78% - - 42° 48.3° 45.7° - - -
2/27 1:30am 53 3 G 4 48° 76% - - 41° 48.3° 45.7° - - -
2/27 1:20am 51 3 G 4 48° 76% - - 41° 48.2° 45.7° - - -
2/27 1:10am 28 2 G 4 48° 76% - - 41° 47.9° 45.7° - - -
2/27 1:00am 38 3 G 4 47° 77% - - 41° 47.7° 45.7° - - -
2/27 12:50am 14 2 G 4 47° 79% - - 41° 47.5° 45.7° - - -
2/27 12:40am 27 3 G 5 47° 81% - - 41° 46.9° 45.7° - - -
2/27 12:30am 38 4 G 6 46° 83% - - 41° 46.5° 45.7° - - -
2/27 12:20am 21 3 G 5 46° 84% - - 41° 46.4° 45.7° - - -
2/27 12:10am 32 3 G 5 46° 84% - - 42° 46.4° 45.7° - - -
2/27 12:00am 26 3 G 7 46° 83% - - 42° 55.8° 46.1° - - -
2/26 11:50pm 37 5 G 7 47° 83% - - 42° 55.8° 46.3° - - -
2/26 11:40pm 51 4 G 6 47° 82% - - 42° 55.8° 46.9° - - -
2/26 11:30pm 51 3 G 5 47° 83% - - 42° 55.8° 47.1° - - -
2/26 11:20pm 40 3 G 4 48° 83% - - 43° 55.8° 47.1° - - -
2/26 11:10pm 66 3 G 4 48° 84% - - 43° 55.8° 47.1° - - -
2/26 11:00pm 42 2 G 3 48° 85% - - 43° 55.8° 47.1° - - -
2/26 10:50pm 52 1 G 2 48° 85% - - 44° 55.8° 47.1° - - -
2/26 10:40pm 89 3 G 5 48° 84% - - 43° 55.8° 47.1° - - -
2/26 10:30pm 43 3 G 5 48° 85% - - 44° 55.8° 47.1° - - -
2/26 10:20pm 24 3 G 5 48° 85% - - 44° 55.8° 47.1° - - -
2/26 10:10pm 26 3 G 5 49° 87% - - 45° 55.8° 47.1° - - -
2/26 10:00pm 25 3 G 4 49° 88% - - 45° 55.8° 47.1° - - -
2/26 9:50pm 42 3 G 4 49° 88% - - 45° 55.8° 47.1° - - -
2/26 9:40pm 50 3 G 5 49° 87% - - 45° 55.8° 47.1° - - -
2/26 9:30pm 63 3 G 5 49° 88% - - 46° 55.8° 47.1° - - -
2/26 9:20pm 62 5 G 7 49° 87% - - 45° 55.8° 47.1° - - -
2/26 9:10pm 51 5 G 6 49° 86% - - 45° 55.8° 47.1° - - -
2/26 9:00pm 48 5 G 6 49° 87% - - 46° 55.8° 47.1° - - -
2/26 8:50pm 57 4 G 6 49° 92% - - 47° 55.8° 47.1° - - -
2/26 8:40pm 51 4 G 6 49° 99% - - 49° 55.8° 47.1° - - -
2/26 8:30pm 47 4 G 5 49° 96% - - 48° 55.8° 47.1° - - -
2/26 8:20pm 29 3 G 4 49° 91% - - 47° 55.8° 47.1° - - -
2/26 8:10pm 51 2 G 3 49° 89% - - 46° 55.8° 47.1° - - -
2/26 8:00pm 31 2 G 2 49° 88% - - 46° 55.8° 47.1° - - -
2/26 7:50pm 45 2 G 3 49° 87% - - 45° 55.8° 47.1° - - -
2/26 7:40pm 40 1 G 2 49° 86% - - 45° 55.8° 47.1° - - -
2/26 7:30pm 42 1 G 2 49° 86% - - 45° 55.8° 47.1° - - -
2/26 7:20pm 43 0 G 1 49° 87% - - 45° 55.8° 47.1° - - -
2/26 7:10pm 111 1 G 2 49° 88% - - 45° 55.8° 47.1° - - -
2/26 7:00pm 68 2 G 4 49° 88% - - 45° 55.8° 47.1° - - -
2/26 6:50pm 53 2 G 4 49° 85% - - 45° 55.8° 47.1° - - -
2/26 6:40pm 203 1 G 2 50° 85% - - 45° 55.8° 47.1° - - -
2/26 6:30pm 217 2 G 4 50° 84% - - 45° 55.8° 47.1° - - -
2/26 6:20pm 227 3 G 6 50° 83% - - 45° 55.8° 47.1° - - -
2/26 6:10pm 218 4 G 8 51° 82% - - 45° 55.8° 47.1° - - -
2/26 6:00pm 230 6 G 11 51° 81% - - 45° 55.8° 47.1° - - -
2/26 5:50pm 243 4 G 7 51° 94% - - 49° 55.8° 47.1° - - -
2/26 5:40pm 244 4 G 7 51° 95% - - 50° 55.8° 47.1° - - -
2/26 5:30pm 213 4 G 6 52° 100% - - 52° 55.8° 47.1° - - -
2/26 5:20pm 226 4 G 8 52° 100% - - 52° 55.8° 47.1° - - -
2/26 5:10pm 232 5 G 10 52° 100% - - 52° 55.8° 47.1° - - -
2/26 5:00pm 230 5 G 10 51° 100% - - 51° 55.8° 47.1° - - -